Time;durP1;ratioP1;P1;durP2;ratioP2;P2;SDS_P1;SDS_P2;PMS_P1;PMS_P2;Temp;Humidity;BMP_temperature;BMP_pressure;BME280_temperature;BME280_humidity;BME280_pressure;Samples;Min_cycle;Max_cycle;Signal;HPM_P1;HPM_P2
2023/02/08 00:00:30;;;;;;;32.28;12.70;;;-1.90;99.90;;;;;;20855652;22;20048;-82
2023/02/08 00:10:31;;;;;;;30.20;12.70;;;-1.80;99.90;;;;;;20809726;28;20407;-80
2023/02/08 00:20:32;;;;;;;25.50;11.43;;;-1.80;99.90;;;;;;20832261;28;20037;-79
2023/02/08 00:30:34;;;;;;;29.38;12.05;;;-1.90;99.90;;;;;;20833982;28;20029;-80
2023/02/08 00:40:35;;;;;;;24.83;12.15;;;-2.00;99.90;;;;;;20832551;28;20033;-79
2023/02/08 00:50:36;;;;;;;28.02;11.38;;;-2.00;99.90;;;;;;20901746;28;20033;-79
2023/02/08 01:00:37;;;;;;;23.65;11.80;;;-2.00;99.90;;;;;;20913436;28;20047;-82
2023/02/08 01:10:40;;;;;;;24.38;10.15;;;-2.00;99.90;;;;;;20913021;28;20503;-82
2023/02/08 01:20:42;;;;;;;21.33;10.30;;;-2.00;99.90;;;;;;20844270;28;20515;-81
2023/02/08 01:30:43;;;;;;;23.52;10.52;;;-1.90;99.90;;;;;;20847244;28;20060;-82
2023/02/08 01:40:43;;;;;;;20.58;9.88;;;-2.10;99.90;;;;;;20847440;28;20044;-81
2023/02/08 01:50:57;;;;;;;22.13;9.70;;;-2.10;99.90;;;;;;20932319;28;20087;-79
2023/02/08 02:00:57;;;;;;;23.15;9.88;;;-2.20;99.90;;;;;;20925356;28;20033;-79
2023/02/08 02:10:58;;;;;;;19.50;8.98;;;-2.30;99.90;;;;;;20926535;28;20242;-81
2023/02/08 02:21:23;;;;;;;18.75;8.68;;;-2.30;99.90;;;;;;20861409;28;20033;-79
2023/02/08 02:31:40;;;;;;;21.42;9.50;;;-2.30;99.90;;;;;;20840490;28;20041;-80
2023/02/08 02:52:13;;;;;;;24.60;8.85;;;-2.30;99.90;;;;;;20922039;28;20047;-80
2023/02/08 03:02:14;;;;;;;24.67;9.05;;;-2.50;99.90;;;;;;20922818;28;20380;-81
2023/02/08 03:12:17;;;;;;;22.10;9.43;;;-2.60;99.90;;;;;;20922977;28;20084;-79
2023/02/08 03:22:28;;;;;;;24.00;10.02;;;-2.70;99.90;;;;;;20840060;28;20451;-79
2023/02/08 03:32:49;;;;;;;23.02;9.05;;;-2.80;99.90;;;;;;20837857;28;20067;-79
2023/02/08 03:42:53;;;;;;;23.45;8.77;;;-2.90;99.90;;;;;;20838677;28;20076;-79
2023/02/08 03:52:55;;;;;;;24.15;9.60;;;-3.00;99.90;;;;;;20836140;28;20030;-81
2023/02/08 04:03:03;;;;;;;21.60;9.05;;;-3.00;99.90;;;;;;20835864;28;20037;-80
2023/02/08 04:13:03;;;;;;;19.67;8.02;;;-3.00;99.90;;;;;;20844845;28;20033;-81
2023/02/08 04:23:04;;;;;;;22.17;9.43;;;-3.10;99.90;;;;;;20861146;28;20459;-81
2023/02/08 04:33:05;;;;;;;29.67;8.48;;;-3.00;99.90;;;;;;20834456;28;20036;-81
2023/02/08 04:43:06;;;;;;;19.98;8.13;;;-3.00;99.90;;;;;;20856457;28;20082;-79
2023/02/08 04:53:07;;;;;;;17.10;8.15;;;-3.20;99.90;;;;;;20913975;28;20384;-78
2023/02/08 05:03:08;;;;;;;17.83;7.53;;;-3.20;99.90;;;;;;20906615;28;20025;-76
2023/02/08 05:13:08;;;;;;;17.30;7.65;;;-3.10;99.90;;;;;;20880455;28;20099;-80
2023/02/08 05:23:10;;;;;;;21.58;9.20;;;-3.20;99.90;;;;;;20828272;28;20042;-81
2023/02/08 05:33:11;;;;;;;17.13;6.75;;;-3.30;99.90;;;;;;20826661;28;20510;-78
2023/02/08 05:43:11;;;;;;;21.20;7.57;;;-3.40;99.90;;;;;;20833300;28;20128;-77
2023/02/08 05:53:14;;;;;;;24.38;8.68;;;-3.40;99.90;;;;;;20821529;28;20455;-78
2023/02/08 06:03:15;;;;;;;20.85;9.15;;;-3.50;99.90;;;;;;20774753;28;20060;-81
2023/02/08 06:13:16;;;;;;;24.17;8.15;;;-3.60;99.90;;;;;;20824703;28;20033;-81
2023/02/08 06:23:17;;;;;;;22.10;9.73;;;-3.70;99.90;;;;;;20846118;28;20404;-80
2023/02/08 06:33:18;;;;;;;21.55;9.50;;;-3.60;99.90;;;;;;20853257;28;20034;-79
2023/02/08 06:43:19;;;;;;;22.70;10.02;;;-3.60;99.90;;;;;;20837259;28;20029;-80
2023/02/08 06:53:20;;;;;;;22.15;9.45;;;-3.70;99.90;;;;;;20770485;28;20522;-78
2023/02/08 07:03:21;;;;;;;19.15;8.77;;;-3.90;99.90;;;;;;20788414;28;20044;-78
2023/02/08 07:13:22;;;;;;;21.48;9.00;;;-4.10;99.90;;;;;;20782788;28;20033;-79
2023/02/08 07:23:23;;;;;;;24.00;10.30;;;-3.70;99.90;;;;;;20852259;28;20055;-80
2023/02/08 07:33:24;;;;;;;24.83;9.57;;;-2.80;99.90;;;;;;20853640;28;20029;-80
2023/02/08 07:43:25;;;;;;;17.60;9.38;;;-2.10;99.90;;;;;;20856282;28;20384;-79
2023/02/08 07:53:32;;;;;;;22.30;10.38;;;-1.10;99.90;;;;;;20906588;28;20116;-79
2023/02/08 08:03:32;;;;;;;21.52;11.95;;;-0.20;99.90;;;;;;20919797;28;20098;-79
2023/02/08 08:13:33;;;;;;;19.65;9.60;;;0.60;99.90;;;;;;20907392;28;20037;-79
2023/02/08 08:23:35;;;;;;;20.58;9.88;;;1.20;99.90;;;;;;20846777;28;20403;-79
2023/02/08 08:33:35;;;;;;;25.40;9.90;;;1.60;99.90;;;;;;20828673;28;20432;-79
2023/02/08 08:43:36;;;;;;;19.17;8.85;;;1.20;99.90;;;;;;20817124;28;20037;-78
2023/02/08 08:53:37;;;;;;;18.63;8.68;;;1.40;99.90;;;;;;20748796;28;20088;-79
2023/02/08 09:03:38;;;;;;;20.95;8.15;;;1.90;99.90;;;;;;20740428;28;20061;-79
2023/02/08 09:13:39;;;;;;;14.10;7.70;;;2.00;99.90;;;;;;20794437;28;20030;-79
2023/02/08 09:23:40;;;;;;;30.67;12.30;;;2.20;99.90;;;;;;20809459;28;20061;-78
2023/02/08 09:33:41;;;;;;;16.80;9.10;;;3.90;99.90;;;;;;20826574;28;20025;-80
2023/02/08 09:43:45;;;;;;;19.80;9.82;;;3.60;99.90;;;;;;20832497;28;20033;-79
2023/02/08 09:53:50;;;;;;;19.02;8.95;;;3.70;99.90;;;;;;20841539;28;20041;-79
2023/02/08 10:04:03;;;;;;;19.92;9.13;;;4.10;99.90;;;;;;20839329;28;20037;-80
2023/02/08 10:14:34;;;;;;;21.83;10.90;;;4.70;99.90;;;;;;20839080;28;20116;-79
2023/02/08 10:24:54;;;;;;;20.60;8.33;;;4.30;99.90;;;;;;20838745;28;20120;-81
2023/02/08 10:35:03;;;;;;;24.52;11.25;;;5.10;99.90;;;;;;20838549;28;20499;-80
2023/02/08 10:45:26;;;;;;;24.20;10.52;;;5.90;99.90;;;;;;20810698;28;20044;-80
2023/02/08 10:55:30;;;;;;;20.38;10.43;;;6.10;99.90;;;;;;20836631;28;20064;-80
2023/02/08 11:05:36;;;;;;;23.58;12.15;;;6.20;99.90;;;;;;20762606;28;20034;-80
2023/02/08 11:15:47;;;;;;;27.77;11.70;;;5.30;99.90;;;;;;20780141;28;20368;-81
2023/02/08 11:25:48;;;;;;;24.10;11.60;;;5.40;99.90;;;;;;20788453;28;20044;-80
2023/02/08 11:35:59;;;;;;;23.70;11.67;;;6.70;99.20;;;;;;20793618;28;20396;-80
2023/02/08 11:46:03;;;;;;;16.00;7.73;;;6.60;99.30;;;;;;20807651;28;20283;-82
2023/02/08 11:56:26;;;;;;;22.45;11.18;;;7.20;98.60;;;;;;20846635;23;20052;-80
2023/02/08 12:06:39;;;;;;;28.65;13.43;;;7.20;99.90;;;;;;20755524;28;20034;-80
2023/02/08 12:17:19;;;;;;;30.17;13.75;;;7.90;97.90;;;;;;20671151;28;20034;-77
2023/02/08 12:28:04;;;;;;;24.05;11.13;;;7.90;97.30;;;;;;20654475;28;20049;-80
2023/02/08 12:50:08;;;;;;;20.60;8.82;;;7.40;97.00;;;;;;20664527;28;20077;-80
2023/02/08 13:00:20;;;;;;;21.25;10.68;;;7.80;97.00;;;;;;20632700;28;20046;-80
2023/02/08 13:10:36;;;;;;;17.95;10.05;;;7.30;96.90;;;;;;20672891;28;20027;-80
2023/02/08 13:20:46;;;;;;;21.60;10.50;;;6.30;97.30;;;;;;20682664;28;20038;-78
2023/02/08 13:30:59;;;;;;;17.95;9.65;;;7.50;97.20;;;;;;20667761;28;20208;-79
2023/02/08 13:41:06;;;;;;;21.48;10.35;;;8.10;96.30;;;;;;20667933;28;20057;-79
2023/02/08 13:51:27;;;;;;;23.85;12.13;;;7.40;96.50;;;;;;20691699;28;20062;-80
2023/02/08 14:01:31;;;;;;;19.55;9.65;;;7.10;96.50;;;;;;20689829;28;20050;-80
2023/02/08 14:11:45;;;;;;;26.35;12.02;;;7.20;96.10;;;;;;20686051;28;20027;-81
2023/02/08 14:21:57;;;;;;;21.67;10.93;;;6.70;96.10;;;;;;20683288;28;20069;-80
2023/02/08 14:31:59;;;;;;;20.48;11.27;;;5.90;97.10;;;;;;20665429;28;20503;-80
2023/02/08 14:42:04;;;;;;;20.95;10.05;;;6.00;97.50;;;;;;20667847;28;20062;-79
2023/02/08 14:52:12;;;;;;;23.05;11.10;;;5.40;97.50;;;;;;20667664;28;20036;-80
2023/02/08 15:02:24;;;;;;;20.67;10.77;;;5.40;97.90;;;;;;20666564;28;20038;-79
2023/02/08 15:12:28;;;;;;;22.70;10.80;;;5.10;98.40;;;;;;20664887;28;20036;-80
2023/02/08 15:22:31;;;;;;;23.77;10.68;;;5.20;98.70;;;;;;20663612;28;20034;-80
2023/02/08 15:32:32;;;;;;;23.63;11.35;;;5.20;98.60;;;;;;20679950;28;20038;-80
2023/02/08 15:42:33;;;;;;;22.15;10.85;;;4.60;99.50;;;;;;20675768;28;20034;-79
2023/02/08 15:52:35;;;;;;;22.45;11.20;;;4.30;99.90;;;;;;20669279;28;20037;-78
2023/02/08 16:02:36;;;;;;;21.23;11.32;;;4.40;99.90;;;;;;20618782;28;20121;-81
2023/02/08 16:12:37;;;;;;;32.35;13.10;;;3.60;99.90;;;;;;20609583;28;20077;-81
2023/02/08 16:22:38;;;;;;;27.77;13.07;;;2.70;99.90;;;;;;20675693;28;20034;-80
2023/02/08 16:32:39;;;;;;;28.67;12.63;;;2.00;99.90;;;;;;20676739;28;20552;-79
2023/02/08 16:42:41;;;;;;;29.60;13.88;;;1.50;99.90;;;;;;20661891;28;20030;-80
2023/02/08 16:52:42;;;;;;;32.75;13.43;;;1.40;99.90;;;;;;20721467;28;20551;-80
2023/02/08 17:02:43;;;;;;;31.30;14.20;;;1.00;99.90;;;;;;20737522;28;20042;-80
2023/02/08 17:12:44;;;;;;;30.63;13.38;;;0.90;99.90;;;;;;20746930;28;20065;-80
2023/02/08 17:22:44;;;;;;;43.55;18.67;;;0.90;99.90;;;;;;20716950;28;20037;-79
2023/02/08 17:32:45;;;;;;;30.63;14.27;;;0.80;99.90;;;;;;20751449;28;20026;-80
2023/02/08 17:42:46;;;;;;;34.53;15.90;;;0.50;99.90;;;;;;20678187;28;20073;-80
2023/02/08 17:52:47;;;;;;;39.78;17.02;;;0.40;99.90;;;;;;20681319;28;20396;-81
2023/02/08 18:02:51;;;;;;;33.08;14.98;;;0.10;99.90;;;;;;20661074;28;20084;-80
2023/02/08 18:12:52;;;;;;;51.80;22.20;;;0.30;99.90;;;;;;20647237;28;20030;-79
2023/02/08 18:22:52;;;;;;;33.40;14.93;;;0.20;99.90;;;;;;20930357;23;20586;-79
2023/02/08 18:32:53;;;;;;;50.50;22.52;;;-0.60;99.90;;;;;;20981699;28;20511;-80
2023/02/08 18:42:54;;;;;;;52.65;22.15;;;-1.40;99.90;;;;;;20983197;28;20034;-79
2023/02/08 18:52:55;;;;;;;35.55;15.77;;;-1.50;99.90;;;;;;20999122;28;20123;-82
2023/02/08 19:02:56;;;;;;;71.05;26.85;;;-1.40;99.90;;;;;;20997330;28;20081;-79
2023/02/08 19:12:56;;;;;;;30.88;14.20;;;-1.90;99.90;;;;;;20999519;28;20043;-79
2023/02/08 19:22:57;;;;;;;43.03;16.00;;;-2.30;99.90;;;;;;20997931;28;20496;-79
2023/02/08 19:32:58;;;;;;;44.38;18.60;;;-2.10;99.90;;;;;;20977305;28;20032;-78
2023/02/08 19:42:59;;;;;;;41.70;18.10;;;-2.40;99.90;;;;;;20997239;28;20024;-80
2023/02/08 19:53:00;;;;;;;41.25;16.63;;;-2.20;99.90;;;;;;20999857;28;20024;-78
2023/02/08 20:03:00;;;;;;;38.30;15.95;;;-2.30;99.90;;;;;;20978824;28;20032;-78
2023/02/08 20:13:01;;;;;;;37.42;17.10;;;-2.30;99.90;;;;;;20991927;28;20036;-81
2023/02/08 20:23:03;;;;;;;43.15;17.05;;;-2.30;99.90;;;;;;20971533;28;20457;-82
2023/02/08 20:33:04;;;;;;;36.53;15.00;;;-2.10;99.90;;;;;;20971013;28;20400;-82
2023/02/08 20:43:05;;;;;;;30.70;14.02;;;-2.10;99.90;;;;;;20988611;28;20386;-82
2023/02/08 20:53:06;;;;;;;34.38;14.25;;;-2.20;99.90;;;;;;20989758;28;20082;-82
2023/02/08 21:03:06;;;;;;;39.85;16.20;;;-2.40;99.90;;;;;;20972463;28;20029;-81
2023/02/08 21:13:07;;;;;;;42.25;15.10;;;-2.60;99.90;;;;;;20972083;28;20024;-80
2023/02/08 21:23:08;;;;;;;37.03;15.88;;;-2.80;99.90;;;;;;20971356;28;20485;-81
2023/02/08 21:33:09;;;;;;;36.40;16.35;;;-2.90;99.90;;;;;;20986863;28;20043;-82
2023/02/08 21:43:10;;;;;;;40.85;15.07;;;-2.90;99.90;;;;;;20980979;28;20148;-83
2023/02/08 22:03:33;;;;;;;39.43;14.80;;;-2.80;99.90;;;;;;21000224;28;20037;-82
2023/02/08 22:13:33;;;;;;;37.90;15.90;;;-2.90;99.90;;;;;;20970768;28;20692;-81
2023/02/08 22:23:34;;;;;;;35.00;14.38;;;-2.90;99.90;;;;;;20916069;28;20442;-80
2023/02/08 22:33:35;;;;;;;41.40;15.95;;;-3.00;99.90;;;;;;20897635;28;20029;-82
2023/02/08 22:43:36;;;;;;;37.30;16.10;;;-3.10;99.90;;;;;;20913484;28;20041;-82
2023/02/08 22:53:37;;;;;;;32.80;14.90;;;-3.20;99.90;;;;;;20894670;28;20148;-82
2023/02/08 23:03:38;;;;;;;35.28;15.63;;;-3.30;99.90;;;;;;20895672;28;20064;-82
2023/02/08 23:13:39;;;;;;;43.03;14.48;;;-3.40;99.90;;;;;;20911834;28;20555;-82
2023/02/08 23:23:40;;;;;;;38.60;16.50;;;-3.50;99.90;;;;;;20900775;28;20497;-82
2023/02/08 23:33:41;;;;;;;37.92;15.07;;;-3.60;99.90;;;;;;20894127;28;20036;-82
2023/02/08 23:43:42;;;;;;;40.85;16.02;;;-3.60;99.90;;;;;;20922436;28;20032;-83
2023/02/08 23:53:44;;;;;;;37.75;15.88;;;-3.60;99.90;;;;;;20991468;28;20127;-82
